Time;durP1;ratioP1;P1;durP2;ratioP2;P2;SDS_P1;SDS_P2;PMS_P1;PMS_P2;Temp;Humidity;BMP_temperature;BMP_pressure;BME280_temperature;BME280_humidity;BME280_pressure;Samples;Min_cycle;Max_cycle;Signal;HPM_P1;HPM_P2
2023/08/04 00:00:21;;;;;;;4.50;0.80;;;;;;;12.59;100.00;96712.53;5061498;28;20048;-55
2023/08/04 00:02:48;;;;;;;2.38;0.60;;;;;;;12.53;100.00;96705.47;5063794;28;20066;-55
2023/08/04 00:05:14;;;;;;;1.73;1.00;;;;;;;12.20;100.00;96713.28;5058353;28;20041;-56
2023/08/04 00:07:42;;;;;;;3.67;0.90;;;;;;;12.03;100.00;96721.72;5062067;28;20511;-57
2023/08/04 00:10:09;;;;;;;1.95;0.80;;;;;;;12.02;100.00;96722.81;5064293;28;20044;-57
2023/08/04 00:12:35;;;;;;;2.28;0.90;;;;;;;12.06;100.00;96721.22;5063745;28;20044;-57
2023/08/04 00:15:02;;;;;;;2.60;0.70;;;;;;;12.08;100.00;96735.28;5062977;28;20052;-57
2023/08/04 00:17:29;;;;;;;2.20;1.25;;;;;;;12.11;100.00;96729.31;5064586;28;20051;-57
2023/08/04 00:19:55;;;;;;;2.45;0.75;;;;;;;12.05;100.00;96723.09;5063245;28;20134;-57
2023/08/04 00:22:22;;;;;;;2.03;0.63;;;;;;;11.97;100.00;96723.63;5064488;28;20094;-57
2023/08/04 00:24:48;;;;;;;5.88;1.10;;;;;;;11.96;100.00;96727.44;5062295;28;20581;-57
2023/08/04 00:27:15;;;;;;;2.38;1.00;;;;;;;11.89;100.00;96732.34;5062539;28;20535;-57
2023/08/04 00:29:41;;;;;;;2.35;0.88;;;;;;;11.89;100.00;96730.47;5063775;28;20534;-57
2023/08/04 00:32:08;;;;;;;2.45;0.80;;;;;;;11.87;100.00;96738.03;5063698;28;20040;-57
2023/08/04 00:34:34;;;;;;;2.15;0.68;;;;;;;11.90;100.00;96740.22;5064186;28;20070;-55
2023/08/04 00:37:01;;;;;;;3.33;0.93;;;;;;;11.86;100.00;96738.34;5062192;28;20514;-57
2023/08/04 00:39:27;;;;;;;5.38;0.80;;;;;;;11.82;100.00;96738.88;5063295;28;20418;-57
2023/08/04 00:41:54;;;;;;;2.60;0.90;;;;;;;11.83;100.00;96736.97;5061748;28;20059;-54
2023/08/04 00:44:20;;;;;;;1.75;0.98;;;;;;;11.75;100.00;96735.66;5065363;28;20040;-54
2023/08/04 00:46:47;;;;;;;1.58;0.80;;;;;;;11.75;100.00;96726.72;5063427;28;20595;-54
2023/08/04 00:49:14;;;;;;;3.22;1.00;;;;;;;11.78;100.00;96724.25;5063192;28;20040;-54
2023/08/04 00:51:41;;;;;;;3.25;0.90;;;;;;;11.77;100.00;96729.94;5063122;28;20041;-55
2023/08/04 00:54:07;;;;;;;2.60;0.95;;;;;;;11.76;100.00;96726.41;5061757;28;20052;-54
2023/08/04 00:56:37;;;;;;;2.72;1.00;;;;;;;11.76;100.00;96731.03;5063025;28;20525;-55
2023/08/04 00:59:03;;;;;;;4.65;1.08;;;;;;;11.69;100.00;96734.03;5074543;28;20046;-53
2023/08/04 01:01:30;;;;;;;1.63;1.02;;;;;;;11.74;100.00;96735.91;5062134;28;20040;-56
2023/08/04 01:03:58;;;;;;;4.38;1.27;;;;;;;11.63;100.00;96738.66;5061905;28;20040;-54
2023/08/04 01:06:59;;;;;;;2.25;1.00;;;;;;;11.68;100.00;96749.50;5050646;28;20539;-56
2023/08/04 01:09:57;;;;;;;3.57;1.37;;;;;;;11.73;100.00;96734.28;5060154;28;20044;-56
2023/08/04 01:12:40;;;;;;;2.58;0.85;;;;;;;11.67;100.00;96749.75;5061695;28;20040;-55
2023/08/04 01:15:09;;;;;;;2.58;1.00;;;;;;;11.59;100.00;96748.44;5063293;28;20672;-57
2023/08/04 01:17:36;;;;;;;2.65;1.00;;;;;;;11.64;100.00;96736.78;5063804;28;20040;-57
2023/08/04 01:20:03;;;;;;;3.20;1.23;;;;;;;11.71;100.00;96738.09;5061676;28;20565;-57
2023/08/04 01:22:30;;;;;;;1.85;0.82;;;;;;;11.74;100.00;96735.91;5063597;28;20032;-57
2023/08/04 01:24:56;;;;;;;3.88;1.00;;;;;;;11.66;100.00;96746.25;5061580;28;20055;-57
2023/08/04 01:27:29;;;;;;;3.20;0.90;;;;;;;11.74;100.00;96734.03;5062765;28;20085;-57
2023/08/04 01:30:00;;;;;;;2.45;1.08;;;;;;;11.53;100.00;96734.06;5062212;28;20036;-57
2023/08/04 01:32:27;;;;;;;2.85;0.88;;;;;;;11.50;100.00;96729.19;5062841;28;20049;-57
2023/08/04 01:34:54;;;;;;;4.72;1.42;;;;;;;11.41;100.00;96736.25;5060746;28;20048;-57
2023/08/04 01:37:22;;;;;;;2.47;0.80;;;;;;;11.38;100.00;96740.31;5063539;28;20036;-57
2023/08/04 01:39:48;;;;;;;4.65;1.98;;;;;;;11.44;100.00;96738.44;5062407;28;20040;-57
2023/08/04 01:42:15;;;;;;;1.33;0.80;;;;;;;11.56;100.00;96735.41;5064442;28;20074;-56
2023/08/04 01:44:41;;;;;;;2.20;1.10;;;;;;;11.68;100.00;96730.50;5061014;28;20036;-54
2023/08/04 01:47:09;;;;;;;1.42;0.63;;;;;;;11.71;100.00;96723.72;5061816;28;20040;-56
2023/08/04 01:49:35;;;;;;;3.88;1.25;;;;;;;11.71;100.00;96726.44;5062818;28;20406;-53
2023/08/04 01:52:03;;;;;;;0.95;0.60;;;;;;;11.80;100.00;96721.28;5060088;28;20040;-54
2023/08/04 01:54:29;;;;;;;1.73;0.80;;;;;;;11.86;100.00;96732.91;5062834;28;20043;-53
2023/08/04 01:56:56;;;;;;;1.90;0.90;;;;;;;11.93;100.00;96722.56;5063108;28;20048;-55
2023/08/04 01:59:22;;;;;;;4.10;1.00;;;;;;;12.02;100.00;96720.09;5062410;28;20431;-55
2023/08/04 02:01:48;;;;;;;1.85;0.75;;;;;;;12.16;100.00;96720.34;5061453;28;20043;-55
2023/08/04 02:04:15;;;;;;;2.28;1.00;;;;;;;12.28;100.00;96720.84;5061187;28;20053;-56
2023/08/04 02:06:42;;;;;;;3.55;0.85;;;;;;;12.43;100.00;96719.94;5060137;28;20619;-55
2023/08/04 02:09:08;;;;;;;3.97;1.20;;;;;;;12.40;100.00;96719.69;5060552;28;20733;-55
2023/08/04 02:11:35;;;;;;;1.83;0.80;;;;;;;12.35;100.00;96728.69;5060272;28;20124;-55
2023/08/04 02:14:02;;;;;;;3.58;1.00;;;;;;;12.28;100.00;96731.69;5060710;28;20526;-56
2023/08/04 02:16:28;;;;;;;3.20;1.02;;;;;;;12.24;100.00;96725.22;5062668;28;20037;-57
2023/08/04 02:19:07;;;;;;;2.33;0.98;;;;;;;12.33;100.00;96728.97;5061842;28;20121;-57
2023/08/04 02:21:33;;;;;;;2.88;0.90;;;;;;;12.35;100.00;96726.75;5059593;28;20036;-57
2023/08/04 02:24:00;;;;;;;4.05;0.90;;;;;;;12.34;100.00;96725.16;5061937;28;20584;-56
2023/08/04 02:26:27;;;;;;;3.15;0.98;;;;;;;12.38;100.00;96719.16;5062625;28;20055;-57
2023/08/04 02:28:54;;;;;;;3.88;1.20;;;;;;;12.38;100.00;96719.97;5061818;28;20060;-57
2023/08/04 02:31:23;;;;;;;3.75;1.05;;;;;;;12.29;100.00;96729.78;5062082;28;20054;-55
2023/08/04 02:33:50;;;;;;;2.13;0.80;;;;;;;12.27;100.00;96729.25;5063527;28;20072;-57
2023/08/04 02:36:17;;;;;;;1.77;0.82;;;;;;;12.23;100.00;96734.41;5060453;28;20048;-57
2023/08/04 02:38:44;;;;;;;3.55;1.00;;;;;;;12.29;100.00;96737.94;5062701;28;20044;-57
2023/08/04 02:41:12;;;;;;;3.67;0.90;;;;;;;12.34;100.00;96733.28;5074226;28;20055;-57
2023/08/04 02:43:39;;;;;;;3.42;1.00;;;;;;;12.48;100.00;96733.50;5063083;28;20546;-57
2023/08/04 02:46:08;;;;;;;3.55;1.20;;;;;;;12.50;100.00;96733.22;5061229;28;20040;-57
2023/08/04 02:48:35;;;;;;;2.20;0.80;;;;;;;12.54;100.00;96728.03;5062239;28;20066;-57
2023/08/04 02:51:02;;;;;;;2.05;0.68;;;;;;;12.58;100.00;96729.91;5061284;28;20540;-57
2023/08/04 02:53:30;;;;;;;2.33;0.90;;;;;;;12.55;100.00;96735.91;5060360;28;20086;-57
2023/08/04 02:55:57;;;;;;;2.85;0.70;;;;;;;12.47;100.00;96729.16;5059327;28;20032;-57
2023/08/04 02:58:25;;;;;;;5.88;0.82;;;;;;;12.46;100.00;96726.72;5063899;28;20033;-57
2023/08/04 03:00:53;;;;;;;3.33;0.68;;;;;;;12.46;100.00;96735.66;5059288;28;20054;-57
2023/08/04 03:03:19;;;;;;;3.13;1.00;;;;;;;12.48;100.00;96735.38;5062385;28;20051;-57
2023/08/04 03:05:46;;;;;;;2.67;0.80;;;;;;;12.40;100.00;96734.09;5058844;28;20040;-57
2023/08/04 03:08:13;;;;;;;2.90;1.00;;;;;;;12.36;100.00;96735.72;5061559;28;20043;-56
2023/08/04 03:10:41;;;;;;;1.45;0.70;;;;;;;12.39;100.00;96732.47;5062175;28;20044;-54
2023/08/04 03:13:09;;;;;;;2.08;1.00;;;;;;;12.33;100.00;96734.38;5060878;28;20062;-57
2023/08/04 03:15:35;;;;;;;4.35;1.02;;;;;;;12.23;100.00;96739.84;5060515;28;20059;-56
2023/08/04 03:18:02;;;;;;;2.10;1.02;;;;;;;12.19;100.00;96739.59;5061637;28;20048;-57
2023/08/04 03:20:36;;;;;;;3.63;1.08;;;;;;;12.30;100.00;96744.97;5065272;28;20037;-58
2023/08/04 03:23:04;;;;;;;1.85;0.90;;;;;;;12.33;100.00;96739.81;5065951;28;20119;-57
2023/08/04 03:25:31;;;;;;;3.80;1.63;;;;;;;12.41;100.00;96745.72;5065678;28;20041;-57
2023/08/04 03:27:58;;;;;;;2.50;0.90;;;;;;;12.44;100.00;96737.84;5067087;28;20048;-57
2023/08/04 03:30:25;;;;;;;3.53;1.10;;;;;;;12.59;100.00;96744.28;5065120;28;20052;-57
2023/08/04 03:32:51;;;;;;;1.90;0.80;;;;;;;12.73;100.00;96739.88;5064816;28;20051;-57
2023/08/04 03:35:18;;;;;;;2.78;0.77;;;;;;;12.86;100.00;96735.69;5063336;28;20047;-57
2023/08/04 03:37:44;;;;;;;2.70;0.93;;;;;;;12.94;100.00;96737.00;5067294;28;20033;-57
2023/08/04 03:40:11;;;;;;;3.45;0.70;;;;;;;12.93;100.00;96740.81;5065288;28;20491;-57
2023/08/04 03:42:38;;;;;;;3.38;0.82;;;;;;;12.90;100.00;96741.38;5069101;28;20460;-54
2023/08/04 03:45:06;;;;;;;3.72;0.80;;;;;;;12.85;100.00;96744.13;5063466;28;20040;-57
2023/08/04 03:47:34;;;;;;;4.35;1.33;;;;;;;12.81;100.00;96738.44;5047910;28;20032;-55
2023/08/04 03:50:02;;;;;;;3.50;0.88;;;;;;;12.85;100.00;96735.97;5064050;28;20048;-55
2023/08/04 03:52:29;;;;;;;1.75;0.70;;;;;;;12.84;100.00;96737.06;5065242;28;20612;-55
2023/08/04 03:54:55;;;;;;;3.25;0.90;;;;;;;12.88;100.00;96738.13;5063682;28;20048;-56
2023/08/04 03:57:22;;;;;;;2.08;0.70;;;;;;;12.79;100.00;96739.81;5063453;28;20040;-56
2023/08/04 03:59:50;;;;;;;1.70;0.65;;;;;;;12.73;100.00;96733.63;5063748;28;20439;-57
2023/08/04 04:02:17;;;;;;;5.93;0.90;;;;;;;12.61;100.00;96739.41;5064568;28;20063;-55
2023/08/04 04:04:44;;;;;;;2.10;0.82;;;;;;;12.64;100.00;96735.31;5064917;28;20044;-55
2023/08/04 04:07:10;;;;;;;1.52;0.80;;;;;;;12.78;100.00;96739.00;5063707;28;20037;-54
2023/08/04 04:09:37;;;;;;;6.82;0.90;;;;;;;12.97;100.00;96738.34;5065525;28;20695;-56
2023/08/04 04:12:03;;;;;;;3.15;0.85;;;;;;;13.01;100.00;96737.50;5063268;28;20132;-55
2023/08/04 04:14:30;;;;;;;3.50;1.02;;;;;;;13.03;100.00;96739.94;5064624;28;20074;-54
2023/08/04 04:16:56;;;;;;;2.45;0.93;;;;;;;13.10;100.00;96724.13;5063412;28;20036;-54
2023/08/04 04:19:23;;;;;;;2.45;0.77;;;;;;;13.16;100.00;96724.84;5063182;28;20184;-56
2023/08/04 04:21:49;;;;;;;0.93;0.45;;;;;;;13.12;100.00;96732.78;5060669;28;20102;-57
2023/08/04 04:24:16;;;;;;;4.55;1.30;;;;;;;13.06;100.00;96735.81;5061896;28;20041;-56
2023/08/04 04:26:43;;;;;;;4.07;1.00;;;;;;;13.10;100.00;96735.00;5061649;28;20127;-57
2023/08/04 04:29:09;;;;;;;4.88;0.90;;;;;;;13.12;100.00;96740.13;5060327;28;20483;-57
2023/08/04 04:31:37;;;;;;;1.67;0.75;;;;;;;13.16;100.00;96733.00;5061824;28;20044;-57
2023/08/04 04:34:03;;;;;;;1.80;0.70;;;;;;;13.33;100.00;96731.78;5060915;28;20044;-57
2023/08/04 04:36:30;;;;;;;1.60;0.60;;;;;;;13.47;100.00;96740.09;5058912;28;20090;-56
2023/08/04 04:38:56;;;;;;;3.40;1.08;;;;;;;13.49;100.00;96735.22;5062135;28;20046;-56
2023/08/04 04:41:23;;;;;;;3.13;1.17;;;;;;;13.56;100.00;96745.78;5064129;28;20151;-57
2023/08/04 04:43:49;;;;;;;2.70;0.70;;;;;;;13.70;100.00;96751.31;5063831;28;20415;-55
2023/08/04 04:46:16;;;;;;;1.17;0.57;;;;;;;13.79;100.00;96746.91;5060256;28;20151;-57
2023/08/04 04:48:43;;;;;;;2.03;0.60;;;;;;;13.72;100.00;96744.53;5062106;28;20044;-54
2023/08/04 04:51:09;;;;;;;4.20;0.82;;;;;;;13.71;100.00;96758.41;5061538;28;20619;-55
2023/08/04 04:53:36;;;;;;;3.83;0.90;;;;;;;13.68;100.00;96748.91;5061524;28;20075;-57
2023/08/04 04:56:03;;;;;;;2.00;0.70;;;;;;;13.70;100.00;96748.59;5059567;28;20125;-56
2023/08/04 04:58:29;;;;;;;1.48;0.75;;;;;;;13.77;100.00;96749.91;5063315;28;20047;-58
2023/08/04 05:01:05;;;;;;;3.78;1.00;;;;;;;13.80;100.00;96756.69;5062090;28;20110;-57
2023/08/04 05:03:31;;;;;;;3.05;1.10;;;;;;;13.86;100.00;96754.72;5061579;28;20040;-57
2023/08/04 05:05:58;;;;;;;3.17;0.95;;;;;;;13.88;100.00;96766.09;5060736;28;20051;-56
2023/08/04 05:08:25;;;;;;;4.75;0.80;;;;;;;13.92;100.00;96764.44;5061869;28;20048;-57
2023/08/04 05:10:52;;;;;;;0.90;0.52;;;;;;;13.89;100.00;96765.81;5060821;28;20039;-57
2023/08/04 05:13:19;;;;;;;2.13;0.60;;;;;;;13.97;100.00;96771.75;5059841;28;20052;-52
2023/08/04 05:15:47;;;;;;;2.75;1.00;;;;;;;13.95;100.00;96760.31;5060479;28;20045;-51
2023/08/04 05:18:15;;;;;;;5.90;1.00;;;;;;;13.97;100.00;96766.31;5060985;28;20086;-49
2023/08/04 05:20:45;;;;;;;4.78;0.70;;;;;;;13.93;100.00;96770.69;5060672;28;20935;-51
2023/08/04 05:23:12;;;;;;;1.55;0.73;;;;;;;13.86;100.00;96771.84;5061717;28;20511;-55
2023/08/04 05:25:40;;;;;;;2.22;0.73;;;;;;;13.94;100.00;96778.56;5061395;28;20094;-53
2023/08/04 05:28:30;;;;;;;5.28;0.70;;;;;;;14.03;100.00;96773.28;5060473;28;20110;-55
2023/08/04 05:31:00;;;;;;;5.35;1.20;;;;;;;14.02;100.00;96783.38;5057018;28;20044;-56
2023/08/04 05:33:28;;;;;;;2.72;0.90;;;;;;;14.07;100.00;96781.72;5060723;28;20686;-55
2023/08/04 05:35:55;;;;;;;2.85;0.70;;;;;;;14.16;100.00;96779.97;5058942;28;20052;-55
2023/08/04 05:38:23;;;;;;;2.35;0.73;;;;;;;14.25;100.00;96791.00;5061276;28;20036;-55
2023/08/04 05:40:50;;;;;;;4.43;1.00;;;;;;;14.27;100.00;96791.56;5058808;28;20496;-55
2023/08/04 05:43:16;;;;;;;2.20;0.80;;;;;;;14.35;100.00;96785.47;5061165;28;20041;-54
2023/08/04 05:45:46;;;;;;;1.42;0.60;;;;;;;14.35;100.00;96787.38;5060245;28;20538;-56
2023/08/04 05:48:13;;;;;;;1.73;0.85;;;;;;;14.30;100.00;96786.31;5060610;28;20097;-55
2023/08/04 05:50:40;;;;;;;2.28;0.70;;;;;;;14.24;100.00;96794.84;5039616;28;20678;-53
2023/08/04 05:53:07;;;;;;;1.42;0.60;;;;;;;14.24;100.00;96792.94;5052215;28;20048;-53
2023/08/04 05:55:34;;;;;;;3.13;0.73;;;;;;;14.32;100.00;96788.75;5060374;28;20047;-52
2023/08/04 05:58:01;;;;;;;2.50;0.90;;;;;;;14.31;100.00;96787.94;5059111;28;20048;-55
2023/08/04 06:00:29;;;;;;;2.40;0.75;;;;;;;14.29;100.00;96794.78;5060342;28;20134;-54
2023/08/04 06:02:56;;;;;;;0.90;0.50;;;;;;;14.37;100.00;96788.69;5059603;28;20036;-54
2023/08/04 06:05:22;;;;;;;3.42;0.63;;;;;;;14.39;100.00;96796.56;5061029;28;20538;-54
2023/08/04 06:07:49;;;;;;;1.08;0.52;;;;;;;14.46;100.00;96797.03;5059981;28;20641;-53
2023/08/04 06:10:17;;;;;;;2.28;0.80;;;;;;;14.54;100.00;96801.03;5062582;28;20072;-52
2023/08/04 06:12:44;;;;;;;3.03;1.00;;;;;;;14.49;100.00;96798.38;5060356;28;20068;-54
2023/08/04 06:15:11;;;;;;;2.17;0.73;;;;;;;14.63;100.00;96796.53;5061056;28;20044;-51
2023/08/04 06:17:38;;;;;;;1.92;0.70;;;;;;;14.74;100.00;96791.75;5061163;28;20124;-51
2023/08/04 06:20:05;;;;;;;2.97;0.77;;;;;;;14.84;100.00;96799.03;5059546;28;20039;-50
2023/08/04 06:22:32;;;;;;;1.48;0.60;;;;;;;14.76;100.00;96795.06;5059275;28;20040;-54
2023/08/04 06:24:58;;;;;;;2.80;0.75;;;;;;;14.92;100.00;96794.81;5058669;28;20048;-54
2023/08/04 06:27:25;;;;;;;2.72;1.00;;;;;;;15.07;100.00;96791.06;5062530;28;20037;-52
2023/08/04 06:29:51;;;;;;;2.35;0.80;;;;;;;15.19;100.00;96791.41;5062464;28;20766;-57
2023/08/04 06:32:18;;;;;;;3.15;0.80;;;;;;;15.26;100.00;96792.97;5058198;28;20127;-57
2023/08/04 06:34:45;;;;;;;3.15;0.63;;;;;;;15.34;98.75;96795.03;5061633;28;20062;-58
2023/08/04 06:37:11;;;;;;;3.05;0.70;;;;;;;15.54;99.74;96793.06;5060384;28;20043;-57
2023/08/04 06:39:38;;;;;;;3.97;0.80;;;;;;;15.64;96.98;96792.06;5059745;28;20044;-55
2023/08/04 06:42:04;;;;;;;3.10;0.57;;;;;;;15.57;95.44;96812.38;5058954;28;20048;-57
2023/08/04 06:44:31;;;;;;;1.20;0.47;;;;;;;15.70;95.56;96804.53;5061906;28;20496;-57
2023/08/04 06:46:57;;;;;;;2.05;0.47;;;;;;;15.89;95.04;96809.94;5058323;28;20045;-57
2023/08/04 06:49:24;;;;;;;1.35;0.38;;;;;;;16.00;94.41;96810.59;5061703;28;20040;-57
2023/08/04 06:51:50;;;;;;;1.35;0.45;;;;;;;16.03;94.74;96814.63;5061718;28;20053;-57
2023/08/04 06:54:18;;;;;;;2.40;0.50;;;;;;;16.09;93.24;96814.25;5065349;28;20055;-57
2023/08/04 06:56:44;;;;;;;2.28;0.60;;;;;;;16.07;93.46;96815.66;5065412;28;20041;-57
2023/08/04 06:59:11;;;;;;;2.35;0.60;;;;;;;16.08;93.14;96823.56;5066305;28;20064;-57
2023/08/04 07:01:37;;;;;;;3.53;0.80;;;;;;;16.24;93.10;96821.34;5066120;28;20041;-56
2023/08/04 07:04:04;;;;;;;0.55;0.40;;;;;;;16.41;91.17;96819.91;5066617;28;20131;-57
2023/08/04 07:06:30;;;;;;;1.45;0.60;;;;;;;16.68;89.84;96821.00;5065886;28;20036;-57
2023/08/04 07:08:57;;;;;;;2.15;0.52;;;;;;;16.47;88.67;96815.16;5065553;28;20052;-57
2023/08/04 07:11:24;;;;;;;4.72;1.83;;;;;;;16.49;90.73;96815.66;5062970;28;20451;-57
2023/08/04 07:13:50;;;;;;;0.98;0.40;;;;;;;16.67;89.63;96818.56;5065248;28;20075;-57
2023/08/04 07:16:17;;;;;;;2.53;0.50;;;;;;;16.79;89.08;96816.13;5065610;28;20044;-57
2023/08/04 07:18:44;;;;;;;6.15;0.75;;;;;;;16.98;87.60;96813.25;5064297;28;22021;-56
2023/08/04 07:21:12;;;;;;;1.55;0.57;;;;;;;16.93;86.84;96818.84;5063762;28;20336;-57
2023/08/04 07:23:40;;;;;;;2.33;0.50;;;;;;;17.05;87.51;96821.06;5064291;28;20127;-57
2023/08/04 07:26:08;;;;;;;1.63;0.60;;;;;;;17.19;87.52;96820.22;5063044;28;20413;-57
2023/08/04 07:28:35;;;;;;;2.92;0.52;;;;;;;17.21;85.41;96821.53;5064953;28;20040;-57
2023/08/04 07:31:07;;;;;;;2.35;0.60;;;;;;;17.14;87.82;96821.16;5062273;28;20107;-57
2023/08/04 07:33:34;;;;;;;1.83;0.80;;;;;;;17.20;87.12;96824.56;5064786;28;20056;-55
2023/08/04 07:36:01;;;;;;;2.70;0.60;;;;;;;17.19;85.60;96826.50;5064915;28;20044;-57
2023/08/04 07:38:28;;;;;;;1.55;0.70;;;;;;;17.24;86.85;96834.59;5062309;28;20504;-56
2023/08/04 07:40:55;;;;;;;1.42;0.50;;;;;;;17.45;84.71;96831.38;5063337;28;20064;-59
2023/08/04 07:43:23;;;;;;;1.60;0.45;;;;;;;17.42;85.54;96841.03;5064408;28;20499;-57
2023/08/04 07:45:50;;;;;;;1.23;0.60;;;;;;;17.32;86.42;96849.44;5062436;28;20064;-57
2023/08/04 07:48:16;;;;;;;1.23;0.50;;;;;;;17.60;85.10;96843.88;5062447;28;20508;-57
2023/08/04 07:50:46;;;;;;;3.53;0.85;;;;;;;17.64;85.36;96842.13;5063981;28;20044;-57
2023/08/04 07:53:12;;;;;;;1.52;0.57;;;;;;;17.70;85.94;96839.28;5063546;28;20059;-57
2023/08/04 07:55:39;;;;;;;1.17;0.50;;;;;;;17.64;86.72;96844.06;5064516;28;20044;-57
2023/08/04 07:58:09;;;;;;;4.50;0.93;;;;;;;17.57;85.93;96843.72;5063626;28;20045;-57
2023/08/04 08:00:36;;;;;;;2.40;0.70;;;;;;;17.59;86.17;96850.47;5064473;28;20082;-57
2023/08/04 08:03:02;;;;;;;2.22;0.60;;;;;;;17.33;87.81;96845.63;5065546;28;20052;-57
2023/08/04 08:05:29;;;;;;;3.10;0.68;;;;;;;17.32;88.84;96840.44;5065333;28;20641;-57
2023/08/04 08:07:56;;;;;;;2.25;0.82;;;;;;;17.43;88.67;96847.28;5064852;28;20036;-56
2023/08/04 08:10:22;;;;;;;4.05;0.70;;;;;;;17.66;87.32;96850.03;5065006;28;20499;-57
2023/08/04 08:12:51;;;;;;;2.92;0.90;;;;;;;17.56;87.17;96851.09;5064950;28;20123;-57
2023/08/04 08:15:17;;;;;;;1.35;0.70;;;;;;;17.57;87.41;96852.72;5065640;28;20079;-57
2023/08/04 08:17:44;;;;;;;3.47;0.77;;;;;;;17.32;89.04;96852.19;5065696;28;20072;-57
2023/08/04 08:20:11;;;;;;;4.03;0.70;;;;;;;17.55;87.99;96858.50;5065080;28;20117;-57
2023/08/04 08:22:37;;;;;;;3.15;0.90;;;;;;;17.72;86.22;96858.94;5065502;28;20038;-57
2023/08/04 08:25:04;;;;;;;2.05;0.63;;;;;;;17.74;86.24;96857.50;5066912;28;20086;-57
2023/08/04 08:27:31;;;;;;;5.18;1.05;;;;;;;17.64;85.64;96853.09;5062730;28;20041;-57
2023/08/04 08:29:57;;;;;;;3.40;0.70;;;;;;;17.70;86.08;96850.22;5060880;28;20051;-57
2023/08/04 08:32:24;;;;;;;8.27;0.70;;;;;;;17.66;84.68;96853.56;5060313;28;20044;-57
2023/08/04 08:34:50;;;;;;;1.42;0.70;;;;;;;17.85;84.25;96851.78;5062650;28;20724;-54
2023/08/04 08:37:17;;;;;;;2.65;0.70;;;;;;;17.95;82.65;96848.78;5061928;28;20516;-56
2023/08/04 08:39:43;;;;;;;3.28;0.80;;;;;;;17.80;83.99;96850.00;5063027;28;20044;-56
2023/08/04 08:42:10;;;;;;;1.80;0.70;;;;;;;17.65;85.15;96851.16;5061113;28;20139;-56
2023/08/04 08:44:37;;;;;;;2.63;0.70;;;;;;;17.73;84.77;96847.66;5062599;28;20044;-56
2023/08/04 08:47:03;;;;;;;2.30;1.00;;;;;;;17.77;84.62;96851.38;5061952;28;20640;-56
2023/08/04 08:49:37;;;;;;;1.35;0.57;;;;;;;17.99;83.55;96846.22;5062621;28;20045;-56
2023/08/04 08:52:08;;;;;;;3.05;0.90;;;;;;;17.94;85.06;96841.66;5062276;28;20044;-57
2023/08/04 08:54:36;;;;;;;4.18;1.15;;;;;;;17.97;84.28;96848.44;5062072;28;20036;-56
2023/08/04 08:57:05;;;;;;;3.22;0.98;;;;;;;17.99;83.96;96844.28;5060352;28;20662;-56
2023/08/04 08:59:32;;;;;;;3.22;0.77;;;;;;;17.99;83.16;96849.75;5061626;28;20037;-56
2023/08/04 09:02:01;;;;;;;2.85;0.77;;;;;;;17.88;83.89;96842.94;5061732;28;20058;-56
2023/08/04 09:04:32;;;;;;;4.00;1.10;;;;;;;17.83;84.10;96851.28;5062605;28;20040;-57
2023/08/04 09:06:59;;;;;;;4.38;0.90;;;;;;;17.91;83.77;96861.50;5060055;28;20113;-57
2023/08/04 09:09:26;;;;;;;5.80;1.02;;;;;;;18.24;84.31;96863.94;5064038;28;20044;-56
2023/08/04 09:11:54;;;;;;;4.57;0.90;;;;;;;18.32;82.55;96865.91;5063242;28;20051;-56
2023/08/04 09:14:21;;;;;;;6.78;1.27;;;;;;;18.35;81.83;96860.94;5063238;28;20436;-57
2023/08/04 09:16:48;;;;;;;3.70;0.70;;;;;;;18.67;81.60;96858.94;5062394;28;20044;-57
2023/08/04 09:19:14;;;;;;;5.05;1.40;;;;;;;19.09;79.81;96858.59;5061356;28;20416;-56
2023/08/04 09:21:41;;;;;;;3.03;0.90;;;;;;;18.96;79.82;96858.41;5061884;28;20043;-56
2023/08/04 09:24:10;;;;;;;2.15;0.70;;;;;;;19.14;77.88;96852.97;5061858;28;20071;-56
2023/08/04 09:26:46;;;;;;;3.30;0.80;;;;;;;18.99;78.79;96859.69;5058655;28;20036;-57
2023/08/04 09:29:14;;;;;;;3.33;1.02;;;;;;;18.99;78.38;96865.16;5060599;28;20055;-57
2023/08/04 09:31:42;;;;;;;2.65;0.85;;;;;;;18.91;77.72;96860.47;5061572;28;20056;-56
2023/08/04 09:34:10;;;;;;;2.85;0.80;;;;;;;18.65;78.62;96858.47;5060767;28;20079;-56
2023/08/04 09:36:47;;;;;;;3.25;1.02;;;;;;;18.54;79.06;96858.75;5061691;28;20051;-56
2023/08/04 09:39:16;;;;;;;2.15;0.65;;;;;;;18.62;79.21;96856.34;5061671;28;20036;-57
2023/08/04 09:41:45;;;;;;;2.70;0.93;;;;;;;18.46;81.90;96859.50;5062162;28;20037;-56
2023/08/04 09:44:14;;;;;;;13.60;1.48;;;;;;;18.51;83.33;96859.41;5060331;28;20054;-54
2023/08/04 09:46:49;;;;;;;3.22;0.80;;;;;;;18.27;84.18;96866.06;5062037;28;20511;-56
2023/08/04 09:49:16;;;;;;;1.70;0.70;;;;;;;18.32;83.36;96862.38;5060236;28;20119;-57
2023/08/04 09:51:43;;;;;;;3.97;0.93;;;;;;;18.43;82.25;96862.91;5061335;28;20028;-56
2023/08/04 09:54:10;;;;;;;1.45;0.70;;;;;;;18.53;83.03;96865.34;5060894;28;20043;-57
2023/08/04 09:56:37;;;;;;;1.35;0.60;;;;;;;18.55;81.96;96863.13;5062769;28;20044;-57
2023/08/04 09:59:03;;;;;;;3.42;0.85;;;;;;;18.59;83.72;96858.63;5062096;28;20423;-57
2023/08/04 10:01:31;;;;;;;2.50;0.77;;;;;;;18.59;82.87;96871.50;5061648;28;20040;-56
2023/08/04 10:03:57;;;;;;;1.85;0.93;;;;;;;18.13;87.19;96873.56;5061129;28;20872;-56
2023/08/04 10:06:25;;;;;;;2.35;0.70;;;;;;;17.78;92.15;96872.19;5062719;28;20768;-56
2023/08/04 10:08:54;;;;;;;2.25;0.68;;;;;;;17.39;91.46;96877.19;5059443;28;20047;-57
2023/08/04 10:11:21;;;;;;;2.53;0.90;;;;;;;17.23;96.83;96876.75;5061276;28;20039;-57
2023/08/04 10:13:51;;;;;;;3.03;0.90;;;;;;;17.36;96.88;96863.34;5060934;28;20059;-56
2023/08/04 10:16:20;;;;;;;3.40;1.00;;;;;;;17.33;97.59;96869.41;5061389;28;20245;-57
2023/08/04 10:19:02;;;;;;;2.92;1.20;;;;;;;17.73;99.58;96860.56;5061701;28;20534;-56
2023/08/04 10:21:34;;;;;;;3.92;1.05;;;;;;;17.98;97.08;96861.84;5062148;28;20044;-57
2023/08/04 10:24:07;;;;;;;4.57;1.15;;;;;;;18.18;94.36;96863.25;5061663;28;20055;-57
2023/08/04 10:26:43;;;;;;;2.47;0.75;;;;;;;18.72;94.30;96856.88;5064437;28;20040;-57
2023/08/04 10:29:10;;;;;;;2.88;0.82;;;;;;;18.76;91.77;96856.25;5059944;28;20055;-57
2023/08/04 10:31:51;;;;;;;1.70;0.88;;;;;;;18.50;91.93;96852.28;5066448;28;20708;-56
2023/08/04 10:34:33;;;;;;;2.95;1.00;;;;;;;18.94;93.44;96866.13;5064901;28;20045;-56
2023/08/04 10:37:04;;;;;;;1.23;0.77;;;;;;;19.04;90.13;96875.16;5063174;28;20048;-55
2023/08/04 10:39:32;;;;;;;;;;;;;;;19.33;89.76;96871.03;5065595;28;20040;-57
2023/08/04 10:42:03;;;;;;;1.98;0.50;;;;;;;19.49;85.69;96874.94;5063669;28;19934;-56
2023/08/04 10:44:30;;;;;;;3.45;0.90;;;;;;;19.49;85.30;96880.41;5065623;28;20043;-56
2023/08/04 10:47:01;;;;;;;1.67;0.57;;;;;;;19.08;84.73;96878.91;5065014;28;20412;-56
2023/08/04 10:49:28;;;;;;;0.77;0.40;;;;;;;18.92;84.45;96884.03;5065711;28;20820;-56
2023/08/04 10:51:56;;;;;;;2.42;0.50;;;;;;;18.97;85.34;96881.94;5065555;28;20032;-56
2023/08/04 10:54:23;;;;;;;1.30;0.40;;;;;;;18.49;85.70;96886.31;5066360;28;20048;-57
2023/08/04 10:56:49;;;;;;;1.42;0.60;;;;;;;18.70;85.97;96883.81;5067084;28;20045;-57
2023/08/04 10:59:16;;;;;;;1.23;0.50;;;;;;;19.06;83.44;96890.22;5067322;28;20499;-57
2023/08/04 11:01:42;;;;;;;0.80;0.50;;;;;;;19.09;83.31;96895.06;5067286;28;20036;-57
2023/08/04 11:04:09;;;;;;;2.65;0.50;;;;;;;19.18;86.05;96897.03;5066243;28;20064;-56
2023/08/04 11:06:36;;;;;;;2.38;0.57;;;;;;;19.07;86.72;96893.78;5063592;28;20045;-57
2023/08/04 11:09:03;;;;;;;2.40;0.73;;;;;;;19.06;86.05;96900.41;5038435;28;20055;-56
2023/08/04 11:11:30;;;;;;;1.02;0.57;;;;;;;18.96;86.03;96898.72;5033477;28;20048;-57
2023/08/04 11:13:57;;;;;;;1.58;0.82;;;;;;;18.89;88.02;96893.69;5063857;28;20044;-57
2023/08/04 11:16:26;;;;;;;1.73;0.70;;;;;;;18.45;90.46;96907.25;5063225;28;20040;-56
2023/08/04 11:18:53;;;;;;;1.67;0.75;;;;;;;18.00;95.05;96897.94;5063476;28;20068;-57
2023/08/04 11:21:20;;;;;;;0.85;0.68;;;;;;;18.25;97.73;96903.13;5061770;28;20048;-56
2023/08/04 11:23:47;;;;;;;3.33;0.90;;;;;;;18.30;100.00;96905.72;5066779;28;20428;-57
2023/08/04 11:26:14;;;;;;;5.28;0.80;;;;;;;18.62;96.26;96905.69;5063559;28;20033;-57
2023/08/04 11:28:41;;;;;;;3.38;0.90;;;;;;;18.88;100.00;96899.50;5063299;28;20041;-57
2023/08/04 11:31:09;;;;;;;3.33;0.80;;;;;;;18.56;100.00;96899.53;5062504;28;20048;-57